Argonne, Wisconsin
Current Conditions -  °F | °C
As of 10:55 AM on Sunday 23 Nov 2014 (Local Time) from KEGV Reporting Station
Unknown Precip Unknown Precip  
Wind Chill: 40°   Ceiling: 200
Heat Index: 44°   Visibility: 0.25mi
Dew Point: 44°   Wind: 6mph
Humidity: 100%   Direction: 190°S
Pressure: 29.5"   Gusts: NA
Location:  45.66°N, 88.88°W
Report Text: KEGV 231655Z AUTO 19005KT 1/4SM UP OVC002 07/07 A2950 RMK AO2 T00650065
Loading
Personal Weather Stations






























Interactive Weather Map New forecast layout! Learn more

10-Day Weather Forecast

Advertisements
Track Severe Weather on mobile